sensor_id;sensor_type;location;lat;lon;timestamp;P1;P2;P0
23240;PMS7003;11789;53.482;9.862;2023-03-11T00:02:12;36.33;34.67;20.00
23240;PMS7003;11789;53.482;9.862;2023-03-11T00:04:38;41.00;36.67;23.33
23240;PMS7003;11789;53.482;9.862;2023-03-11T00:07:07;48.67;39.00;21.33
23240;PMS7003;11789;53.482;9.862;2023-03-11T00:09:34;48.33;37.67;21.00
23240;PMS7003;11789;53.482;9.862;2023-03-11T00:12:00;46.33;37.00;22.00
23240;PMS7003;11789;53.482;9.862;2023-03-11T00:14:26;38.67;38.00;21.67
23240;PMS7003;11789;53.482;9.862;2023-03-11T00:16:51;48.67;40.33;25.00
23240;PMS7003;11789;53.482;9.862;2023-03-11T00:19:17;50.33;41.33;21.00
23240;PMS7003;11789;53.482;9.862;2023-03-11T00:21:42;53.33;42.00;22.33
23240;PMS7003;11789;53.482;9.862;2023-03-11T00:24:08;48.67;39.67;25.67
23240;PMS7003;11789;53.482;9.862;2023-03-11T00:26:33;51.33;42.00;24.00
23240;PMS7003;11789;53.482;9.862;2023-03-11T00:28:59;52.33;42.00;24.33
23240;PMS7003;11789;53.482;9.862;2023-03-11T00:31:24;45.67;39.33;21.33
23240;PMS7003;11789;53.482;9.862;2023-03-11T00:33:53;33.33;33.33;17.33
23240;PMS7003;11789;53.482;9.862;2023-03-11T00:36:23;39.33;35.33;24.00
23240;PMS7003;11789;53.482;9.862;2023-03-11T00:38:52;47.67;40.67;22.00
23240;PMS7003;11789;53.482;9.862;2023-03-11T00:41:18;46.00;39.33;21.00
23240;PMS7003;11789;53.482;9.862;2023-03-11T00:43:44;37.00;33.00;22.00
23240;PMS7003;11789;53.482;9.862;2023-03-11T00:46:09;42.00;40.00;22.00
23240;PMS7003;11789;53.482;9.862;2023-03-11T00:48:35;45.00;40.00;24.00
23240;PMS7003;11789;53.482;9.862;2023-03-11T00:51:00;41.33;39.00;21.00
23240;PMS7003;11789;53.482;9.862;2023-03-11T00:53:25;51.00;40.00;21.00
23240;PMS7003;11789;53.482;9.862;2023-03-11T00:55:51;46.00;41.00;22.33
23240;PMS7003;11789;53.482;9.862;2023-03-11T00:58:16;49.00;42.33;24.00
23240;PMS7003;11789;53.482;9.862;2023-03-11T01:00:42;37.67;31.00;19.67
23240;PMS7003;11789;53.482;9.862;2023-03-11T01:03:08;52.67;40.00;23.00
23240;PMS7003;11789;53.482;9.862;2023-03-11T01:05:34;41.33;37.33;22.33
23240;PMS7003;11789;53.482;9.862;2023-03-11T01:07:59;40.00;37.33;21.67
23240;PMS7003;11789;53.482;9.862;2023-03-11T01:10:27;43.00;33.33;18.33
23240;PMS7003;11789;53.482;9.862;2023-03-11T01:12:54;38.00;35.00;13.33
23240;PMS7003;11789;53.482;9.862;2023-03-11T01:15:53;46.00;34.33;18.33
23240;PMS7003;11789;53.482;9.862;2023-03-11T01:18:11;42.67;34.00;22.00
23240;PMS7003;11789;53.482;9.862;2023-03-11T01:20:38;42.00;36.00;20.67
23240;PMS7003;11789;53.482;9.862;2023-03-11T01:23:04;44.67;39.00;20.00
23240;PMS7003;11789;53.482;9.862;2023-03-11T01:25:31;40.67;33.33;19.67
23240;PMS7003;11789;53.482;9.862;2023-03-11T01:27:56;48.33;35.67;21.00
23240;PMS7003;11789;53.482;9.862;2023-03-11T01:30:23;43.00;34.00;20.00
23240;PMS7003;11789;53.482;9.862;2023-03-11T01:32:50;40.00;36.00;21.00
23240;PMS7003;11789;53.482;9.862;2023-03-11T01:35:17;41.00;37.33;22.00
23240;PMS7003;11789;53.482;9.862;2023-03-11T01:37:44;44.00;38.00;21.00
23240;PMS7003;11789;53.482;9.862;2023-03-11T01:40:16;42.33;39.00;22.67
23240;PMS7003;11789;53.482;9.862;2023-03-11T01:42:45;48.67;39.00;22.33
23240;PMS7003;11789;53.482;9.862;2023-03-11T01:47:51;37.67;33.67;21.00
23240;PMS7003;11789;53.482;9.862;2023-03-11T01:50:17;31.00;29.67;19.67
23240;PMS7003;11789;53.482;9.862;2023-03-11T01:52:42;46.00;35.00;20.00
23240;PMS7003;11789;53.482;9.862;2023-03-11T01:55:09;48.67;35.33;17.00
23240;PMS7003;11789;53.482;9.862;2023-03-11T01:57:36;39.33;34.33;19.67
23240;PMS7003;11789;53.482;9.862;2023-03-11T02:00:05;37.67;33.67;18.33
23240;PMS7003;11789;53.482;9.862;2023-03-11T02:02:34;27.67;27.33;19.33
23240;PMS7003;11789;53.482;9.862;2023-03-11T02:05:06;38.33;35.33;21.00
23240;PMS7003;11789;53.482;9.862;2023-03-11T02:07:32;32.67;29.67;18.33
23240;PMS7003;11789;53.482;9.862;2023-03-11T02:09:58;43.67;33.00;20.67
23240;PMS7003;11789;53.482;9.862;2023-03-11T02:12:24;38.33;34.33;18.67
23240;PMS7003;11789;53.482;9.862;2023-03-11T02:14:52;39.67;31.33;20.00
23240;PMS7003;11789;53.482;9.862;2023-03-11T02:17:18;36.33;32.33;19.00
23240;PMS7003;11789;53.482;9.862;2023-03-11T02:22:10;38.67;34.00;20.00
23240;PMS7003;11789;53.482;9.862;2023-03-11T02:27:21;41.00;30.33;18.33
23240;PMS7003;11789;53.482;9.862;2023-03-11T02:29:51;32.00;30.00;18.67
23240;PMS7003;11789;53.482;9.862;2023-03-11T02:32:18;33.67;32.67;18.33
23240;PMS7003;11789;53.482;9.862;2023-03-11T02:34:44;48.33;40.00;23.67
23240;PMS7003;11789;53.482;9.862;2023-03-11T02:37:11;45.67;37.33;20.00
23240;PMS7003;11789;53.482;9.862;2023-03-11T02:39:43;41.00;37.00;19.67
23240;PMS7003;11789;53.482;9.862;2023-03-11T02:42:24;51.75;41.75;25.00
23240;PMS7003;11789;53.482;9.862;2023-03-11T02:44:59;58.33;44.00;24.00
23240;PMS7003;11789;53.482;9.862;2023-03-11T02:47:29;41.33;40.67;26.33
23240;PMS7003;11789;53.482;9.862;2023-03-11T02:49:56;62.33;45.33;25.00
23240;PMS7003;11789;53.482;9.862;2023-03-11T02:52:23;54.67;47.33;26.33
23240;PMS7003;11789;53.482;9.862;2023-03-11T02:54:50;57.00;45.67;24.33
23240;PMS7003;11789;53.482;9.862;2023-03-11T02:57:15;54.00;45.67;24.00
23240;PMS7003;11789;53.482;9.862;2023-03-11T02:59:41;46.00;42.33;23.00
23240;PMS7003;11789;53.482;9.862;2023-03-11T03:02:06;48.33;40.33;22.33
23240;PMS7003;11789;53.482;9.862;2023-03-11T03:04:32;48.67;42.00;22.33
23240;PMS7003;11789;53.482;9.862;2023-03-11T03:06:57;56.67;39.67;20.33
23240;PMS7003;11789;53.482;9.862;2023-03-11T03:09:22;46.00;40.00;20.67
23240;PMS7003;11789;53.482;9.862;2023-03-11T03:11:48;43.67;36.67;19.33
23240;PMS7003;11789;53.482;9.862;2023-03-11T03:14:13;41.00;32.33;17.33
23240;PMS7003;11789;53.482;9.862;2023-03-11T03:16:39;40.00;36.00;20.00
23240;PMS7003;11789;53.482;9.862;2023-03-11T03:19:04;33.00;29.33;16.33
23240;PMS7003;11789;53.482;9.862;2023-03-11T03:21:30;36.33;33.00;20.33
23240;PMS7003;11789;53.482;9.862;2023-03-11T03:23:55;32.00;30.67;18.33
23240;PMS7003;11789;53.482;9.862;2023-03-11T03:26:20;48.67;38.67;21.33
23240;PMS7003;11789;53.482;9.862;2023-03-11T03:28:46;34.33;30.67;17.67
23240;PMS7003;11789;53.482;9.862;2023-03-11T03:31:12;43.33;37.33;22.33
23240;PMS7003;11789;53.482;9.862;2023-03-11T03:33:38;32.67;29.00;16.33
23240;PMS7003;11789;53.482;9.862;2023-03-11T03:36:08;40.67;34.33;18.67
23240;PMS7003;11789;53.482;9.862;2023-03-11T03:38:35;37.00;34.33;20.00
23240;PMS7003;11789;53.482;9.862;2023-03-11T03:41:01;33.67;29.67;18.00
23240;PMS7003;11789;53.482;9.862;2023-03-11T03:43:26;39.00;28.67;16.67
23240;PMS7003;11789;53.482;9.862;2023-03-11T03:46:02;27.33;27.33;17.67
23240;PMS7003;11789;53.482;9.862;2023-03-11T03:48:29;30.33;30.33;18.00
23240;PMS7003;11789;53.482;9.862;2023-03-11T03:50:55;37.67;28.67;16.00
23240;PMS7003;11789;53.482;9.862;2023-03-11T03:53:21;40.00;31.67;17.00
23240;PMS7003;11789;53.482;9.862;2023-03-11T03:55:46;40.33;34.00;17.00
23240;PMS7003;11789;53.482;9.862;2023-03-11T03:58:13;27.00;27.00;16.00
23240;PMS7003;11789;53.482;9.862;2023-03-11T04:00:39;27.67;24.00;14.67
23240;PMS7003;11789;53.482;9.862;2023-03-11T04:03:05;29.67;25.00;15.33
23240;PMS7003;11789;53.482;9.862;2023-03-11T04:05:31;31.00;27.00;16.00
23240;PMS7003;11789;53.482;9.862;2023-03-11T04:07:57;29.00;27.00;16.00
23240;PMS7003;11789;53.482;9.862;2023-03-11T04:10:23;37.67;24.33;16.00
23240;PMS7003;11789;53.482;9.862;2023-03-11T04:12:48;32.33;25.67;17.00
23240;PMS7003;11789;53.482;9.862;2023-03-11T04:15:14;28.67;28.00;16.33
23240;PMS7003;11789;53.482;9.862;2023-03-11T04:17:40;32.33;28.00;15.33
23240;PMS7003;11789;53.482;9.862;2023-03-11T04:20:05;32.67;27.33;17.00
23240;PMS7003;11789;53.482;9.862;2023-03-11T04:22:32;29.33;26.00;16.33
23240;PMS7003;11789;53.482;9.862;2023-03-11T04:24:58;26.67;24.67;13.33
23240;PMS7003;11789;53.482;9.862;2023-03-11T04:27:24;26.33;25.00;14.33
23240;PMS7003;11789;53.482;9.862;2023-03-11T04:29:49;28.00;22.33;14.33
23240;PMS7003;11789;53.482;9.862;2023-03-11T04:32:15;26.00;24.00;15.67
23240;PMS7003;11789;53.482;9.862;2023-03-11T04:34:40;25.33;22.67;14.67
23240;PMS7003;11789;53.482;9.862;2023-03-11T04:37:06;24.67;23.33;14.67
23240;PMS7003;11789;53.482;9.862;2023-03-11T04:39:31;31.67;28.00;16.00
23240;PMS7003;11789;53.482;9.862;2023-03-11T04:41:57;28.33;21.33;9.67
23240;PMS7003;11789;53.482;9.862;2023-03-11T04:44:22;25.67;25.67;13.33
23240;PMS7003;11789;53.482;9.862;2023-03-11T04:46:48;28.67;22.00;13.00
23240;PMS7003;11789;53.482;9.862;2023-03-11T04:49:13;31.67;26.33;12.67
23240;PMS7003;11789;53.482;9.862;2023-03-11T04:51:38;18.67;17.00;9.33
23240;PMS7003;11789;53.482;9.862;2023-03-11T04:54:04;27.67;22.33;13.67
23240;PMS7003;11789;53.482;9.862;2023-03-11T04:56:30;28.33;25.67;13.67
23240;PMS7003;11789;53.482;9.862;2023-03-11T04:58:55;28.67;24.33;12.33
23240;PMS7003;11789;53.482;9.862;2023-03-11T05:01:21;32.00;25.67;14.33
23240;PMS7003;11789;53.482;9.862;2023-03-11T05:03:46;30.00;26.67;13.33
23240;PMS7003;11789;53.482;9.862;2023-03-11T05:06:12;32.67;25.67;14.67
23240;PMS7003;11789;53.482;9.862;2023-03-11T05:08:37;36.33;34.00;17.00
23240;PMS7003;11789;53.482;9.862;2023-03-11T05:11:02;28.00;22.67;16.00
23240;PMS7003;11789;53.482;9.862;2023-03-11T05:13:28;27.67;27.67;12.67
23240;PMS7003;11789;53.482;9.862;2023-03-11T05:15:54;37.67;29.00;18.33
23240;PMS7003;11789;53.482;9.862;2023-03-11T05:18:20;44.00;35.33;20.00
23240;PMS7003;11789;53.482;9.862;2023-03-11T05:20:45;50.67;39.67;22.33
23240;PMS7003;11789;53.482;9.862;2023-03-11T05:23:11;41.00;37.00;20.00
23240;PMS7003;11789;53.482;9.862;2023-03-11T05:25:36;49.50;41.75;22.50
23240;PMS7003;11789;53.482;9.862;2023-03-11T05:28:02;57.00;43.50;23.25
23240;PMS7003;11789;53.482;9.862;2023-03-11T05:30:27;56.00;44.75;24.00
23240;PMS7003;11789;53.482;9.862;2023-03-11T05:32:53;48.50;42.75;21.75
23240;PMS7003;11789;53.482;9.862;2023-03-11T05:35:20;51.50;42.00;19.75
23240;PMS7003;11789;53.482;9.862;2023-03-11T05:37:46;49.00;39.25;21.50
23240;PMS7003;11789;53.482;9.862;2023-03-11T05:40:14;43.50;36.50;20.75
23240;PMS7003;11789;53.482;9.862;2023-03-11T05:42:40;51.75;41.50;23.00
23240;PMS7003;11789;53.482;9.862;2023-03-11T05:45:06;41.67;35.00;20.00
23240;PMS7003;11789;53.482;9.862;2023-03-11T05:47:32;43.33;35.33;21.00
23240;PMS7003;11789;53.482;9.862;2023-03-11T05:49:58;40.33;33.67;17.67
23240;PMS7003;11789;53.482;9.862;2023-03-11T05:52:24;37.00;32.33;17.33
23240;PMS7003;11789;53.482;9.862;2023-03-11T05:54:50;36.67;32.33;20.00
23240;PMS7003;11789;53.482;9.862;2023-03-11T05:57:16;41.00;33.67;18.00
23240;PMS7003;11789;53.482;9.862;2023-03-11T05:59:42;42.33;32.00;18.33
23240;PMS7003;11789;53.482;9.862;2023-03-11T06:02:08;36.33;28.33;15.67
23240;PMS7003;11789;53.482;9.862;2023-03-11T06:04:33;35.33;31.00;16.67
23240;PMS7003;11789;53.482;9.862;2023-03-11T06:06:59;42.00;30.00;17.67
23240;PMS7003;11789;53.482;9.862;2023-03-11T06:09:24;32.00;28.67;17.67
23240;PMS7003;11789;53.482;9.862;2023-03-11T06:11:50;32.67;31.33;19.33
23240;PMS7003;11789;53.482;9.862;2023-03-11T06:14:15;39.00;28.00;15.33
23240;PMS7003;11789;53.482;9.862;2023-03-11T06:16:41;30.33;22.67;14.33
23240;PMS7003;11789;53.482;9.862;2023-03-11T06:19:07;29.33;26.00;14.00
23240;PMS7003;11789;53.482;9.862;2023-03-11T06:21:33;29.33;25.00;13.00
23240;PMS7003;11789;53.482;9.862;2023-03-11T06:23:58;28.33;24.67;13.00
23240;PMS7003;11789;53.482;9.862;2023-03-11T06:26:23;25.33;21.67;14.00
23240;PMS7003;11789;53.482;9.862;2023-03-11T06:28:49;27.00;24.00;15.67
23240;PMS7003;11789;53.482;9.862;2023-03-11T06:31:17;27.67;24.33;15.00
23240;PMS7003;11789;53.482;9.862;2023-03-11T06:33:45;23.33;20.67;14.00
23240;PMS7003;11789;53.482;9.862;2023-03-11T06:36:12;40.00;28.00;17.00
23240;PMS7003;11789;53.482;9.862;2023-03-11T06:38:39;28.00;20.00;13.00
23240;PMS7003;11789;53.482;9.862;2023-03-11T06:41:05;30.67;23.33;13.00
23240;PMS7003;11789;53.482;9.862;2023-03-11T06:43:32;28.00;21.00;13.33
23240;PMS7003;11789;53.482;9.862;2023-03-11T06:45:58;27.33;25.00;14.33
23240;PMS7003;11789;53.482;9.862;2023-03-11T06:48:24;22.00;19.33;12.67
23240;PMS7003;11789;53.482;9.862;2023-03-11T06:50:58;26.33;23.67;13.67
23240;PMS7003;11789;53.482;9.862;2023-03-11T06:53:25;29.33;24.00;14.67
23240;PMS7003;11789;53.482;9.862;2023-03-11T06:55:58;25.67;20.33;13.00
23240;PMS7003;11789;53.482;9.862;2023-03-11T06:58:29;20.67;20.33;14.33
23240;PMS7003;11789;53.482;9.862;2023-03-11T07:01:02;29.00;26.33;13.00
23240;PMS7003;11789;53.482;9.862;2023-03-11T07:03:39;22.00;21.33;12.33
23240;PMS7003;11789;53.482;9.862;2023-03-11T07:06:06;25.00;21.00;13.33
23240;PMS7003;11789;53.482;9.862;2023-03-11T07:08:36;27.00;21.33;13.67
23240;PMS7003;11789;53.482;9.862;2023-03-11T07:11:03;21.00;20.00;13.00
23240;PMS7003;11789;53.482;9.862;2023-03-11T07:13:37;24.00;24.00;13.33
23240;PMS7003;11789;53.482;9.862;2023-03-11T07:16:07;25.33;23.33;13.67
23240;PMS7003;11789;53.482;9.862;2023-03-11T07:18:39;28.00;23.33;12.33
23240;PMS7003;11789;53.482;9.862;2023-03-11T07:21:06;22.00;20.33;13.00
23240;PMS7003;11789;53.482;9.862;2023-03-11T07:23:32;21.00;18.67;13.00
23240;PMS7003;11789;53.482;9.862;2023-03-11T07:25:59;27.00;21.00;13.67
23240;PMS7003;11789;53.482;9.862;2023-03-11T07:28:25;19.67;18.00;14.00
23240;PMS7003;11789;53.482;9.862;2023-03-11T07:30:52;27.33;22.67;14.33
23240;PMS7003;11789;53.482;9.862;2023-03-11T07:33:18;22.33;19.33;14.00
23240;PMS7003;11789;53.482;9.862;2023-03-11T07:35:44;23.33;17.67;13.33
23240;PMS7003;11789;53.482;9.862;2023-03-11T07:38:10;25.33;22.00;13.00
23240;PMS7003;11789;53.482;9.862;2023-03-11T07:40:36;36.00;28.67;14.67
23240;PMS7003;11789;53.482;9.862;2023-03-11T07:43:02;23.67;20.33;14.00
23240;PMS7003;11789;53.482;9.862;2023-03-11T07:45:28;28.00;21.67;14.00
23240;PMS7003;11789;53.482;9.862;2023-03-11T07:47:53;26.00;22.00;13.00
23240;PMS7003;11789;53.482;9.862;2023-03-11T07:50:19;24.67;19.33;12.00
23240;PMS7003;11789;53.482;9.862;2023-03-11T07:52:46;24.33;24.00;14.67
23240;PMS7003;11789;53.482;9.862;2023-03-11T07:55:12;26.33;22.67;15.00
23240;PMS7003;11789;53.482;9.862;2023-03-11T07:57:38;27.33;22.33;12.00
23240;PMS7003;11789;53.482;9.862;2023-03-11T08:00:04;17.33;16.00;11.33
23240;PMS7003;11789;53.482;9.862;2023-03-11T08:02:30;17.00;17.00;11.67
23240;PMS7003;11789;53.482;9.862;2023-03-11T08:04:55;22.67;20.33;11.67
23240;PMS7003;11789;53.482;9.862;2023-03-11T08:07:21;18.00;16.33;11.00
23240;PMS7003;11789;53.482;9.862;2023-03-11T08:09:47;18.33;16.67;12.00
23240;PMS7003;11789;53.482;9.862;2023-03-11T08:12:12;19.00;17.67;11.33
23240;PMS7003;11789;53.482;9.862;2023-03-11T08:14:38;20.00;18.67;11.33
23240;PMS7003;11789;53.482;9.862;2023-03-11T08:17:04;19.67;17.00;10.33
23240;PMS7003;11789;53.482;9.862;2023-03-11T08:19:30;14.33;14.33;9.33
23240;PMS7003;11789;53.482;9.862;2023-03-11T08:21:55;13.33;13.33;9.00
23240;PMS7003;11789;53.482;9.862;2023-03-11T08:24:20;17.33;15.67;10.33
23240;PMS7003;11789;53.482;9.862;2023-03-11T08:26:46;18.00;18.00;12.00
23240;PMS7003;11789;53.482;9.862;2023-03-11T08:29:11;18.33;16.33;10.33
23240;PMS7003;11789;53.482;9.862;2023-03-11T08:31:37;18.00;17.67;11.67
23240;PMS7003;11789;53.482;9.862;2023-03-11T08:34:04;16.67;16.33;12.00
23240;PMS7003;11789;53.482;9.862;2023-03-11T08:36:31;20.67;20.67;11.00
23240;PMS7003;11789;53.482;9.862;2023-03-11T08:38:57;17.00;17.00;11.33
23240;PMS7003;11789;53.482;9.862;2023-03-11T08:41:23;31.00;30.00;22.33
23240;PMS7003;11789;53.482;9.862;2023-03-11T08:43:49;22.33;21.33;13.00
23240;PMS7003;11789;53.482;9.862;2023-03-11T08:46:23;50.67;43.67;30.33
23240;PMS7003;11789;53.482;9.862;2023-03-11T08:48:51;56.67;49.00;34.00
23240;PMS7003;11789;53.482;9.862;2023-03-11T08:51:18;40.67;37.67;28.00
23240;PMS7003;11789;53.482;9.862;2023-03-11T08:53:44;26.33;26.33;20.33
23240;PMS7003;11789;53.482;9.862;2023-03-11T08:56:10;18.00;14.00;10.00
23240;PMS7003;11789;53.482;9.862;2023-03-11T08:58:36;18.50;17.25;11.50
23240;PMS7003;11789;53.482;9.862;2023-03-11T09:01:01;21.00;16.33;12.00
23240;PMS7003;11789;53.482;9.862;2023-03-11T09:03:31;16.00;12.00;10.50
23240;PMS7003;11789;53.482;9.862;2023-03-11T09:05:59;20.25;16.50;11.00
23240;PMS7003;11789;53.482;9.862;2023-03-11T09:08:26;12.25;12.25;8.00
23240;PMS7003;11789;53.482;9.862;2023-03-11T09:10:52;13.25;13.25;9.00
23240;PMS7003;11789;53.482;9.862;2023-03-11T09:13:17;16.00;14.00;7.75
23240;PMS7003;11789;53.482;9.862;2023-03-11T09:15:43;13.75;12.50;9.00
23240;PMS7003;11789;53.482;9.862;2023-03-11T09:18:12;17.50;12.00;8.00
23240;PMS7003;11789;53.482;9.862;2023-03-11T09:20:38;13.25;13.25;8.00
23240;PMS7003;11789;53.482;9.862;2023-03-11T09:23:08;10.50;9.25;8.00
23240;PMS7003;11789;53.482;9.862;2023-03-11T09:25:35;12.00;12.00;8.50
23240;PMS7003;11789;53.482;9.862;2023-03-11T09:28:00;11.00;11.00;8.75
23240;PMS7003;11789;53.482;9.862;2023-03-11T09:30:26;9.25;9.25;7.00
23240;PMS7003;11789;53.482;9.862;2023-03-11T09:32:52;16.00;10.75;7.75
23240;PMS7003;11789;53.482;9.862;2023-03-11T09:35:17;13.25;11.00;8.25
23240;PMS7003;11789;53.482;9.862;2023-03-11T09:37:43;11.00;11.00;8.50
23240;PMS7003;11789;53.482;9.862;2023-03-11T09:40:12;11.75;11.75;8.25
23240;PMS7003;11789;53.482;9.862;2023-03-11T09:45:38;9.75;8.75;6.25
23240;PMS7003;11789;53.482;9.862;2023-03-11T09:51:00;13.50;9.00;7.00
23240;PMS7003;11789;53.482;9.862;2023-03-11T09:53:45;4.00;4.00;4.00
23240;PMS7003;11789;53.482;9.862;2023-03-11T09:56:17;7.75;7.75;5.50
23240;PMS7003;11789;53.482;9.862;2023-03-11T10:01:29;9.00;9.00;5.50
23240;PMS7003;11789;53.482;9.862;2023-03-11T10:04:02;6.50;4.25;3.00
23240;PMS7003;11789;53.482;9.862;2023-03-11T10:06:34;8.25;7.75;5.00
23240;PMS7003;11789;53.482;9.862;2023-03-11T10:11:36;8.25;8.25;6.50
23240;PMS7003;11789;53.482;9.862;2023-03-11T10:19:55;12.00;10.75;8.00
23240;PMS7003;11789;53.482;9.862;2023-03-11T10:28:29;12.00;8.25;5.75
23240;PMS7003;11789;53.482;9.862;2023-03-11T10:36:45;12.00;9.75;6.50
23240;PMS7003;11789;53.482;9.862;2023-03-11T10:39:33;8.00;8.00;6.00
23240;PMS7003;11789;53.482;9.862;2023-03-11T10:41:59;10.00;8.67;6.00
23240;PMS7003;11789;53.482;9.862;2023-03-11T10:44:31;8.00;8.00;6.00
23240;PMS7003;11789;53.482;9.862;2023-03-11T10:46:59;7.75;7.00;6.00
23240;PMS7003;11789;53.482;9.862;2023-03-11T10:49:25;7.67;7.67;6.33
23240;PMS7003;11789;53.482;9.862;2023-03-11T10:51:52;12.67;9.00;7.33
23240;PMS7003;11789;53.482;9.862;2023-03-11T10:54:30;11.00;11.00;7.00
23240;PMS7003;11789;53.482;9.862;2023-03-11T10:56:59;11.00;9.67;7.00
23240;PMS7003;11789;53.482;9.862;2023-03-11T10:59:28;9.00;9.00;4.00
23240;PMS7003;11789;53.482;9.862;2023-03-11T11:02:01;9.00;9.00;8.00
23240;PMS7003;11789;53.482;9.862;2023-03-11T11:04:47;14.33;9.00;6.00
23240;PMS7003;11789;53.482;9.862;2023-03-11T11:07:32;8.67;7.00;4.00
23240;PMS7003;11789;53.482;9.862;2023-03-11T11:10:23;12.67;10.33;6.67
23240;PMS7003;11789;53.482;9.862;2023-03-11T11:15:41;10.25;7.50;6.00
23240;PMS7003;11789;53.482;9.862;2023-03-11T11:21:00;8.25;6.25;4.50
23240;PMS7003;11789;53.482;9.862;2023-03-11T11:26:00;7.50;6.00;4.00
23240;PMS7003;11789;53.482;9.862;2023-03-11T11:28:29;5.50;3.75;3.00
23240;PMS7003;11789;53.482;9.862;2023-03-11T11:31:04;9.00;7.00;4.00
23240;PMS7003;11789;53.482;9.862;2023-03-11T11:33:52;7.00;6.00;4.00
23240;PMS7003;11789;53.482;9.862;2023-03-11T11:36:21;7.25;7.25;4.00
23240;PMS7003;11789;53.482;9.862;2023-03-11T11:38:53;9.75;5.50;3.75
23240;PMS7003;11789;53.482;9.862;2023-03-11T11:41:20;9.50;6.75;4.50
23240;PMS7003;11789;53.482;9.862;2023-03-11T11:46:26;11.50;8.75;6.00
23240;PMS7003;11789;53.482;9.862;2023-03-11T11:51:51;8.00;8.00;6.00
23240;PMS7003;11789;53.482;9.862;2023-03-11T11:54:25;4.75;4.75;3.50
23240;PMS7003;11789;53.482;9.862;2023-03-11T11:56:55;9.75;7.00;4.25
23240;PMS7003;11789;53.482;9.862;2023-03-11T11:59:22;8.50;7.00;5.75
23240;PMS7003;11789;53.482;9.862;2023-03-11T12:04:44;8.00;6.25;4.00
23240;PMS7003;11789;53.482;9.862;2023-03-11T12:07:39;8.75;7.00;4.00
23240;PMS7003;11789;53.482;9.862;2023-03-11T12:15:38;12.25;6.25;3.00
23240;PMS7003;11789;53.482;9.862;2023-03-11T12:18:13;7.75;5.25;4.00
23240;PMS7003;11789;53.482;9.862;2023-03-11T12:20:46;4.00;4.00;3.25
23240;PMS7003;11789;53.482;9.862;2023-03-11T12:26:18;5.00;5.00;4.00
23240;PMS7003;11789;53.482;9.862;2023-03-11T12:29:00;6.00;6.00;3.50
23240;PMS7003;11789;53.482;9.862;2023-03-11T12:31:33;4.00;4.00;3.00
23240;PMS7003;11789;53.482;9.862;2023-03-11T12:34:03;3.00;3.00;2.00
23240;PMS7003;11789;53.482;9.862;2023-03-11T12:36:38;6.75;4.25;3.00
23240;PMS7003;11789;53.482;9.862;2023-03-11T12:39:28;3.00;3.00;2.00
23240;PMS7003;11789;53.482;9.862;2023-03-11T12:44:35;4.00;4.00;2.50
23240;PMS7003;11789;53.482;9.862;2023-03-11T12:49:54;7.75;4.00;2.75
23240;PMS7003;11789;53.482;9.862;2023-03-11T12:52:50;2.75;2.75;2.25
23240;PMS7003;11789;53.482;9.862;2023-03-11T13:16:55;4.00;4.00;3.00
23240;PMS7003;11789;53.482;9.862;2023-03-11T13:19:54;2.50;2.50;2.00
23240;PMS7003;11789;53.482;9.862;2023-03-11T13:25:31;3.00;3.00;2.50
23240;PMS7003;11789;53.482;9.862;2023-03-11T13:28:47;3.00;3.00;2.00
23240;PMS7003;11789;53.482;9.862;2023-03-11T13:30:58;6.25;5.25;2.75
23240;PMS7003;11789;53.482;9.862;2023-03-11T13:33:43;3.00;3.00;2.25
23240;PMS7003;11789;53.482;9.862;2023-03-11T13:41:42;3.00;3.00;2.00
23240;PMS7003;11789;53.482;9.862;2023-03-11T13:44:51;3.50;3.00;2.00
23240;PMS7003;11789;53.482;9.862;2023-03-11T13:47:12;4.00;2.00;2.00
23240;PMS7003;11789;53.482;9.862;2023-03-11T13:55:43;4.00;3.00;2.00
23240;PMS7003;11789;53.482;9.862;2023-03-11T13:58:26;2.00;2.00;1.75
23240;PMS7003;11789;53.482;9.862;2023-03-11T14:00:53;2.00;2.00;1.75
23240;PMS7003;11789;53.482;9.862;2023-03-11T14:03:21;2.75;2.75;1.75
23240;PMS7003;11789;53.482;9.862;2023-03-11T14:05:54;2.00;2.00;2.00
23240;PMS7003;11789;53.482;9.862;2023-03-11T14:08:25;2.00;2.00;1.25
23240;PMS7003;11789;53.482;9.862;2023-03-11T14:10:53;3.25;2.00;1.00
23240;PMS7003;11789;53.482;9.862;2023-03-11T14:13:21;2.00;2.00;1.25
23240;PMS7003;11789;53.482;9.862;2023-03-11T14:20:55;0.00;0.00;0.00
23240;PMS7003;11789;53.482;9.862;2023-03-11T14:23:22;1.00;1.00;1.00
23240;PMS7003;11789;53.482;9.862;2023-03-11T14:25:59;1.00;1.00;0.00
23240;PMS7003;11789;53.482;9.862;2023-03-11T14:28:29;0.50;0.50;0.50
23240;PMS7003;11789;53.482;9.862;2023-03-11T14:30:59;3.25;2.00;1.00
23240;PMS7003;11789;53.482;9.862;2023-03-11T14:33:25;1.00;1.00;1.00
23240;PMS7003;11789;53.482;9.862;2023-03-11T14:38:19;1.00;1.00;1.00
23240;PMS7003;11789;53.482;9.862;2023-03-11T14:40:56;1.75;1.00;1.00
23240;PMS7003;11789;53.482;9.862;2023-03-11T14:43:34;1.00;1.00;1.00
23240;PMS7003;11789;53.482;9.862;2023-03-11T14:46:05;1.00;1.00;1.00
23240;PMS7003;11789;53.482;9.862;2023-03-11T14:48:36;0.00;0.00;0.00
23240;PMS7003;11789;53.482;9.862;2023-03-11T14:51:06;3.50;1.00;1.00
23240;PMS7003;11789;53.482;9.862;2023-03-11T14:53:48;1.75;1.50;0.75
23240;PMS7003;11789;53.482;9.862;2023-03-11T14:56:23;3.00;1.25;1.00
23240;PMS7003;11789;53.482;9.862;2023-03-11T14:58:54;1.75;1.75;1.00
23240;PMS7003;11789;53.482;9.862;2023-03-11T15:01:31;4.25;1.00;1.00
23240;PMS7003;11789;53.482;9.862;2023-03-11T15:04:12;7.50;2.00;1.00
23240;PMS7003;11789;53.482;9.862;2023-03-11T15:06:50;2.00;2.00;1.00
23240;PMS7003;11789;53.482;9.862;2023-03-11T15:09:20;2.00;2.00;1.50
23240;PMS7003;11789;53.482;9.862;2023-03-11T15:11:51;3.50;2.50;2.00
23240;PMS7003;11789;53.482;9.862;2023-03-11T15:16:52;2.00;2.00;1.00
23240;PMS7003;11789;53.482;9.862;2023-03-11T15:19:37;2.00;2.00;2.00
23240;PMS7003;11789;53.482;9.862;2023-03-11T15:22:05;6.00;2.00;1.00
23240;PMS7003;11789;53.482;9.862;2023-03-11T15:24:49;1.50;1.00;1.00
23240;PMS7003;11789;53.482;9.862;2023-03-11T15:27:28;1.25;1.25;1.00
23240;PMS7003;11789;53.482;9.862;2023-03-11T15:29:57;3.75;2.00;1.25
23240;PMS7003;11789;53.482;9.862;2023-03-11T15:37:32;2.25;2.25;2.00
23240;PMS7003;11789;53.482;9.862;2023-03-11T15:40:09;1.00;1.00;1.00
23240;PMS7003;11789;53.482;9.862;2023-03-11T15:42:41;3.75;2.75;2.00
23240;PMS7003;11789;53.482;9.862;2023-03-11T15:47:33;2.00;2.00;1.75
23240;PMS7003;11789;53.482;9.862;2023-03-11T15:52:48;2.50;1.00;1.00
23240;PMS7003;11789;53.482;9.862;2023-03-11T15:55:14;3.25;2.00;1.00
23240;PMS7003;11789;53.482;9.862;2023-03-11T15:57:40;6.00;2.00;2.00
23240;PMS7003;11789;53.482;9.862;2023-03-11T16:00:14;2.00;2.00;2.00
23240;PMS7003;11789;53.482;9.862;2023-03-11T16:02:46;4.00;2.25;2.00
23240;PMS7003;11789;53.482;9.862;2023-03-11T16:05:20;5.50;2.50;2.00
23240;PMS7003;11789;53.482;9.862;2023-03-11T16:07:47;2.00;1.50;1.00
23240;PMS7003;11789;53.482;9.862;2023-03-11T16:10:14;2.00;2.00;2.00